sensor_id;sensor_type;location;lat;lon;timestamp;P1;durP1;ratioP1;P2;durP2;ratioP2
72559;SDS011;62987;52.382;9.752;2022-11-15T00:00:27;18.15;;;7.00;;
72559;SDS011;62987;52.382;9.752;2022-11-15T00:03:14;14.88;;;7.15;;
72559;SDS011;62987;52.382;9.752;2022-11-15T00:06:01;13.45;;;6.63;;
72559;SDS011;62987;52.382;9.752;2022-11-15T00:08:50;14.95;;;7.25;;
72559;SDS011;62987;52.382;9.752;2022-11-15T00:11:37;13.70;;;7.35;;
72559;SDS011;62987;52.382;9.752;2022-11-15T00:14:23;15.68;;;7.78;;
72559;SDS011;62987;52.382;9.752;2022-11-15T00:17:10;14.88;;;7.50;;
72559;SDS011;62987;52.382;9.752;2022-11-15T00:19:57;19.83;;;8.60;;
72559;SDS011;62987;52.382;9.752;2022-11-15T00:22:44;14.32;;;6.97;;
72559;SDS011;62987;52.382;9.752;2022-11-15T00:25:32;14.68;;;7.07;;
72559;SDS011;62987;52.382;9.752;2022-11-15T00:28:19;13.00;;;6.25;;
72559;SDS011;62987;52.382;9.752;2022-11-15T00:31:06;14.32;;;7.47;;
72559;SDS011;62987;52.382;9.752;2022-11-15T00:33:57;12.32;;;6.45;;
72559;SDS011;62987;52.382;9.752;2022-11-15T00:36:44;17.42;;;7.43;;
72559;SDS011;62987;52.382;9.752;2022-11-15T00:39:30;16.30;;;7.97;;
72559;SDS011;62987;52.382;9.752;2022-11-15T00:42:18;17.10;;;6.75;;
72559;SDS011;62987;52.382;9.752;2022-11-15T00:45:05;13.68;;;6.38;;
72559;SDS011;62987;52.382;9.752;2022-11-15T00:47:52;15.40;;;6.85;;
72559;SDS011;62987;52.382;9.752;2022-11-15T00:50:39;15.70;;;7.03;;
72559;SDS011;62987;52.382;9.752;2022-11-15T00:53:25;19.73;;;7.38;;
72559;SDS011;62987;52.382;9.752;2022-11-15T00:56:12;15.25;;;7.32;;
72559;SDS011;62987;52.382;9.752;2022-11-15T00:59:00;15.05;;;7.35;;
72559;SDS011;62987;52.382;9.752;2022-11-15T01:01:46;14.63;;;7.03;;
72559;SDS011;62987;52.382;9.752;2022-11-15T01:04:33;13.43;;;6.75;;
72559;SDS011;62987;52.382;9.752;2022-11-15T01:07:20;14.43;;;5.97;;
72559;SDS011;62987;52.382;9.752;2022-11-15T01:10:07;11.50;;;6.10;;
72559;SDS011;62987;52.382;9.752;2022-11-15T01:12:54;12.63;;;6.32;;
72559;SDS011;62987;52.382;9.752;2022-11-15T01:15:42;16.13;;;6.57;;
72559;SDS011;62987;52.382;9.752;2022-11-15T01:18:28;12.65;;;6.20;;
72559;SDS011;62987;52.382;9.752;2022-11-15T01:21:16;11.13;;;6.22;;
72559;SDS011;62987;52.382;9.752;2022-11-15T01:24:04;11.38;;;5.45;;
72559;SDS011;62987;52.382;9.752;2022-11-15T01:26:51;12.18;;;5.82;;
72559;SDS011;62987;52.382;9.752;2022-11-15T01:29:38;10.13;;;5.75;;
72559;SDS011;62987;52.382;9.752;2022-11-15T01:32:26;10.90;;;5.25;;
72559;SDS011;62987;52.382;9.752;2022-11-15T01:35:13;11.27;;;5.70;;
72559;SDS011;62987;52.382;9.752;2022-11-15T01:37:59;12.20;;;5.97;;
72559;SDS011;62987;52.382;9.752;2022-11-15T01:40:46;13.35;;;5.97;;
72559;SDS011;62987;52.382;9.752;2022-11-15T01:43:34;10.77;;;5.68;;
72559;SDS011;62987;52.382;9.752;2022-11-15T01:46:27;8.65;;;5.35;;
72559;SDS011;62987;52.382;9.752;2022-11-15T01:49:18;10.15;;;5.45;;
72559;SDS011;62987;52.382;9.752;2022-11-15T01:52:07;9.77;;;5.45;;
72559;SDS011;62987;52.382;9.752;2022-11-15T01:54:59;12.77;;;6.03;;
72559;SDS011;62987;52.382;9.752;2022-11-15T01:57:51;13.07;;;6.18;;
72559;SDS011;62987;52.382;9.752;2022-11-15T02:00:39;13.93;;;6.32;;
72559;SDS011;62987;52.382;9.752;2022-11-15T02:03:28;13.88;;;6.20;;
72559;SDS011;62987;52.382;9.752;2022-11-15T02:06:21;13.02;;;5.60;;
72559;SDS011;62987;52.382;9.752;2022-11-15T02:09:09;13.18;;;6.30;;
72559;SDS011;62987;52.382;9.752;2022-11-15T02:11:55;14.85;;;6.57;;
72559;SDS011;62987;52.382;9.752;2022-11-15T02:14:44;15.30;;;6.50;;
72559;SDS011;62987;52.382;9.752;2022-11-15T02:17:39;16.00;;;5.90;;
72559;SDS011;62987;52.382;9.752;2022-11-15T02:20:47;13.80;;;6.10;;
72559;SDS011;62987;52.382;9.752;2022-11-15T02:24:01;12.23;;;6.30;;
72559;SDS011;62987;52.382;9.752;2022-11-15T02:30:21;9.27;;;5.10;;
72559;SDS011;62987;52.382;9.752;2022-11-15T02:33:13;11.85;;;6.22;;
72559;SDS011;62987;52.382;9.752;2022-11-15T02:36:12;13.82;;;5.93;;
72559;SDS011;62987;52.382;9.752;2022-11-15T02:39:08;13.40;;;5.30;;
72559;SDS011;62987;52.382;9.752;2022-11-15T02:42:02;10.73;;;5.78;;
72559;SDS011;62987;52.382;9.752;2022-11-15T02:45:17;15.45;;;6.32;;
72559;SDS011;62987;52.382;9.752;2022-11-15T02:48:08;11.93;;;5.50;;
72559;SDS011;62987;52.382;9.752;2022-11-15T02:50:56;12.52;;;6.50;;
72559;SDS011;62987;52.382;9.752;2022-11-15T02:53:43;14.25;;;6.18;;
72559;SDS011;62987;52.382;9.752;2022-11-15T02:56:30;11.68;;;5.15;;
72559;SDS011;62987;52.382;9.752;2022-11-15T02:59:20;12.68;;;6.10;;
72559;SDS011;62987;52.382;9.752;2022-11-15T03:02:22;18.33;;;6.97;;
72559;SDS011;62987;52.382;9.752;2022-11-15T03:05:24;14.10;;;6.05;;
72559;SDS011;62987;52.382;9.752;2022-11-15T03:08:21;13.32;;;6.00;;
72559;SDS011;62987;52.382;9.752;2022-11-15T03:11:16;11.93;;;5.60;;
72559;SDS011;62987;52.382;9.752;2022-11-15T03:14:07;12.32;;;5.88;;
72559;SDS011;62987;52.382;9.752;2022-11-15T03:17:07;10.57;;;5.85;;
72559;SDS011;62987;52.382;9.752;2022-11-15T03:20:05;14.10;;;5.93;;
72559;SDS011;62987;52.382;9.752;2022-11-15T03:22:55;9.43;;;5.75;;
72559;SDS011;62987;52.382;9.752;2022-11-15T03:25:47;11.82;;;5.22;;
72559;SDS011;62987;52.382;9.752;2022-11-15T03:28:37;12.27;;;5.40;;
72559;SDS011;62987;52.382;9.752;2022-11-15T03:31:28;7.75;;;4.22;;
72559;SDS011;62987;52.382;9.752;2022-11-15T03:34:37;10.70;;;4.82;;
72559;SDS011;62987;52.382;9.752;2022-11-15T03:37:29;9.07;;;4.88;;
72559;SDS011;62987;52.382;9.752;2022-11-15T03:40:22;12.25;;;4.88;;
72559;SDS011;62987;52.382;9.752;2022-11-15T03:43:18;8.63;;;4.28;;
72559;SDS011;62987;52.382;9.752;2022-11-15T03:46:11;9.95;;;4.03;;
72559;SDS011;62987;52.382;9.752;2022-11-15T03:49:02;12.60;;;4.57;;
72559;SDS011;62987;52.382;9.752;2022-11-15T03:51:56;10.57;;;4.85;;
72559;SDS011;62987;52.382;9.752;2022-11-15T03:54:47;8.13;;;3.78;;
72559;SDS011;62987;52.382;9.752;2022-11-15T03:57:36;10.75;;;4.18;;
72559;SDS011;62987;52.382;9.752;2022-11-15T04:00:23;10.43;;;4.15;;
72559;SDS011;62987;52.382;9.752;2022-11-15T04:03:10;10.25;;;4.10;;
72559;SDS011;62987;52.382;9.752;2022-11-15T04:05:56;12.38;;;4.35;;
72559;SDS011;62987;52.382;9.752;2022-11-15T04:08:43;7.93;;;4.03;;
72559;SDS011;62987;52.382;9.752;2022-11-15T04:11:30;9.18;;;4.40;;
72559;SDS011;62987;52.382;9.752;2022-11-15T04:14:18;9.27;;;4.28;;
72559;SDS011;62987;52.382;9.752;2022-11-15T04:17:05;8.98;;;3.75;;
72559;SDS011;62987;52.382;9.752;2022-11-15T04:19:51;8.55;;;4.20;;
72559;SDS011;62987;52.382;9.752;2022-11-15T04:22:56;7.97;;;4.55;;
72559;SDS011;62987;52.382;9.752;2022-11-15T04:26:02;7.82;;;3.63;;
72559;SDS011;62987;52.382;9.752;2022-11-15T04:28:50;10.18;;;3.80;;
72559;SDS011;62987;52.382;9.752;2022-11-15T04:31:56;6.43;;;3.50;;
72559;SDS011;62987;52.382;9.752;2022-11-15T04:34:43;7.43;;;3.40;;
72559;SDS011;62987;52.382;9.752;2022-11-15T04:37:29;7.13;;;3.15;;
72559;SDS011;62987;52.382;9.752;2022-11-15T04:40:16;6.68;;;3.65;;
72559;SDS011;62987;52.382;9.752;2022-11-15T04:43:02;9.18;;;3.50;;
72559;SDS011;62987;52.382;9.752;2022-11-15T04:45:49;6.80;;;3.05;;
72559;SDS011;62987;52.382;9.752;2022-11-15T04:48:37;6.65;;;3.00;;
72559;SDS011;62987;52.382;9.752;2022-11-15T04:51:24;8.70;;;2.80;;
72559;SDS011;62987;52.382;9.752;2022-11-15T04:54:11;9.20;;;3.92;;
72559;SDS011;62987;52.382;9.752;2022-11-15T04:56:57;7.20;;;3.00;;
72559;SDS011;62987;52.382;9.752;2022-11-15T04:59:44;7.95;;;3.58;;
72559;SDS011;62987;52.382;9.752;2022-11-15T05:02:30;5.60;;;2.75;;
72559;SDS011;62987;52.382;9.752;2022-11-15T05:05:32;6.07;;;2.95;;
72559;SDS011;62987;52.382;9.752;2022-11-15T05:08:19;5.03;;;2.85;;
72559;SDS011;62987;52.382;9.752;2022-11-15T05:11:06;6.78;;;3.20;;
72559;SDS011;62987;52.382;9.752;2022-11-15T05:13:53;7.25;;;3.38;;
72559;SDS011;62987;52.382;9.752;2022-11-15T05:16:40;6.30;;;3.00;;
72559;SDS011;62987;52.382;9.752;2022-11-15T05:19:26;4.82;;;3.10;;
72559;SDS011;62987;52.382;9.752;2022-11-15T05:22:14;7.60;;;3.00;;
72559;SDS011;62987;52.382;9.752;2022-11-15T05:25:01;9.35;;;3.25;;
72559;SDS011;62987;52.382;9.752;2022-11-15T05:27:48;6.53;;;2.80;;
72559;SDS011;62987;52.382;9.752;2022-11-15T05:30:34;7.13;;;3.08;;
72559;SDS011;62987;52.382;9.752;2022-11-15T05:33:21;7.20;;;2.95;;
72559;SDS011;62987;52.382;9.752;2022-11-15T05:36:09;5.35;;;2.90;;
72559;SDS011;62987;52.382;9.752;2022-11-15T05:39:02;8.18;;;3.17;;
72559;SDS011;62987;52.382;9.752;2022-11-15T05:41:53;6.80;;;3.13;;
72559;SDS011;62987;52.382;9.752;2022-11-15T05:44:44;6.90;;;2.78;;
72559;SDS011;62987;52.382;9.752;2022-11-15T05:47:33;8.70;;;3.10;;
72559;SDS011;62987;52.382;9.752;2022-11-15T05:50:21;6.68;;;2.85;;
72559;SDS011;62987;52.382;9.752;2022-11-15T05:53:08;7.07;;;3.45;;
72559;SDS011;62987;52.382;9.752;2022-11-15T05:55:58;8.40;;;3.20;;
72559;SDS011;62987;52.382;9.752;2022-11-15T05:58:45;8.40;;;3.65;;
72559;SDS011;62987;52.382;9.752;2022-11-15T06:01:31;7.07;;;3.42;;
72559;SDS011;62987;52.382;9.752;2022-11-15T06:04:18;8.27;;;3.08;;
72559;SDS011;62987;52.382;9.752;2022-11-15T06:07:05;6.32;;;2.83;;
72559;SDS011;62987;52.382;9.752;2022-11-15T06:09:52;5.70;;;2.47;;
72559;SDS011;62987;52.382;9.752;2022-11-15T06:12:40;8.00;;;3.30;;
72559;SDS011;62987;52.382;9.752;2022-11-15T06:15:27;6.85;;;3.15;;
72559;SDS011;62987;52.382;9.752;2022-11-15T06:18:13;7.78;;;3.22;;
72559;SDS011;62987;52.382;9.752;2022-11-15T06:21:00;8.50;;;3.15;;
72559;SDS011;62987;52.382;9.752;2022-11-15T06:23:47;8.45;;;3.90;;
72559;SDS011;62987;52.382;9.752;2022-11-15T06:26:33;7.55;;;3.78;;
72559;SDS011;62987;52.382;9.752;2022-11-15T06:29:21;7.47;;;3.47;;
72559;SDS011;62987;52.382;9.752;2022-11-15T06:32:08;8.88;;;3.42;;
72559;SDS011;62987;52.382;9.752;2022-11-15T06:34:55;8.25;;;3.13;;
72559;SDS011;62987;52.382;9.752;2022-11-15T06:37:42;7.32;;;3.20;;
72559;SDS011;62987;52.382;9.752;2022-11-15T06:40:28;8.73;;;3.38;;
72559;SDS011;62987;52.382;9.752;2022-11-15T06:43:15;10.35;;;3.95;;
72559;SDS011;62987;52.382;9.752;2022-11-15T06:46:03;8.90;;;4.28;;
72559;SDS011;62987;52.382;9.752;2022-11-15T06:48:51;10.63;;;4.03;;
72559;SDS011;62987;52.382;9.752;2022-11-15T06:51:38;7.38;;;3.67;;
72559;SDS011;62987;52.382;9.752;2022-11-15T06:54:25;11.55;;;3.53;;
72559;SDS011;62987;52.382;9.752;2022-11-15T06:57:11;9.23;;;3.83;;
72559;SDS011;62987;52.382;9.752;2022-11-15T06:59:58;11.38;;;3.75;;
72559;SDS011;62987;52.382;9.752;2022-11-15T07:02:46;10.15;;;4.13;;
72559;SDS011;62987;52.382;9.752;2022-11-15T07:05:33;8.13;;;4.15;;
72559;SDS011;62987;52.382;9.752;2022-11-15T07:08:20;6.97;;;3.15;;
72559;SDS011;62987;52.382;9.752;2022-11-15T07:11:07;8.88;;;3.85;;
72559;SDS011;62987;52.382;9.752;2022-11-15T07:13:55;8.10;;;3.17;;
72559;SDS011;62987;52.382;9.752;2022-11-15T07:16:41;7.55;;;3.63;;
72559;SDS011;62987;52.382;9.752;2022-11-15T07:19:29;5.78;;;3.05;;
72559;SDS011;62987;52.382;9.752;2022-11-15T07:22:16;8.35;;;3.38;;
72559;SDS011;62987;52.382;9.752;2022-11-15T07:25:03;8.93;;;3.72;;
72559;SDS011;62987;52.382;9.752;2022-11-15T07:27:53;7.35;;;3.33;;
72559;SDS011;62987;52.382;9.752;2022-11-15T07:30:41;7.68;;;3.28;;
72559;SDS011;62987;52.382;9.752;2022-11-15T07:33:29;7.55;;;3.53;;
72559;SDS011;62987;52.382;9.752;2022-11-15T07:36:18;6.47;;;3.05;;
72559;SDS011;62987;52.382;9.752;2022-11-15T07:39:04;8.38;;;3.42;;
72559;SDS011;62987;52.382;9.752;2022-11-15T07:41:51;6.40;;;2.80;;
72559;SDS011;62987;52.382;9.752;2022-11-15T07:44:58;7.65;;;3.67;;
72559;SDS011;62987;52.382;9.752;2022-11-15T07:47:45;7.50;;;3.45;;
72559;SDS011;62987;52.382;9.752;2022-11-15T07:50:31;9.65;;;3.38;;
72559;SDS011;62987;52.382;9.752;2022-11-15T07:53:19;7.53;;;2.95;;
72559;SDS011;62987;52.382;9.752;2022-11-15T07:56:06;7.45;;;3.25;;
72559;SDS011;62987;52.382;9.752;2022-11-15T07:58:53;6.78;;;2.88;;
72559;SDS011;62987;52.382;9.752;2022-11-15T08:01:40;6.15;;;2.95;;
72559;SDS011;62987;52.382;9.752;2022-11-15T08:04:26;6.65;;;3.33;;
72559;SDS011;62987;52.382;9.752;2022-11-15T08:07:13;8.07;;;2.63;;
72559;SDS011;62987;52.382;9.752;2022-11-15T08:10:01;7.22;;;3.28;;
72559;SDS011;62987;52.382;9.752;2022-11-15T08:12:55;7.97;;;3.38;;
72559;SDS011;62987;52.382;9.752;2022-11-15T08:15:43;9.10;;;4.00;;
72559;SDS011;62987;52.382;9.752;2022-11-15T08:18:30;5.85;;;2.22;;
72559;SDS011;62987;52.382;9.752;2022-11-15T08:21:18;6.07;;;2.47;;
72559;SDS011;62987;52.382;9.752;2022-11-15T08:24:07;6.28;;;2.70;;
72559;SDS011;62987;52.382;9.752;2022-11-15T08:26:56;6.55;;;2.85;;
72559;SDS011;62987;52.382;9.752;2022-11-15T08:29:43;5.93;;;2.92;;
72559;SDS011;62987;52.382;9.752;2022-11-15T08:32:31;8.30;;;2.60;;
72559;SDS011;62987;52.382;9.752;2022-11-15T08:35:18;8.18;;;2.90;;
72559;SDS011;62987;52.382;9.752;2022-11-15T08:38:13;6.13;;;3.00;;
72559;SDS011;62987;52.382;9.752;2022-11-15T08:40:59;5.18;;;2.90;;
72559;SDS011;62987;52.382;9.752;2022-11-15T08:43:49;6.25;;;2.90;;
72559;SDS011;62987;52.382;9.752;2022-11-15T08:46:36;9.20;;;2.78;;
72559;SDS011;62987;52.382;9.752;2022-11-15T08:49:23;8.30;;;3.42;;
72559;SDS011;62987;52.382;9.752;2022-11-15T08:52:09;9.38;;;2.80;;
72559;SDS011;62987;52.382;9.752;2022-11-15T08:54:56;5.45;;;3.22;;
72559;SDS011;62987;52.382;9.752;2022-11-15T08:57:43;5.82;;;2.70;;
72559;SDS011;62987;52.382;9.752;2022-11-15T09:00:31;4.50;;;2.03;;
72559;SDS011;62987;52.382;9.752;2022-11-15T09:03:18;5.57;;;2.60;;
72559;SDS011;62987;52.382;9.752;2022-11-15T09:06:04;4.93;;;2.22;;
72559;SDS011;62987;52.382;9.752;2022-11-15T09:08:51;8.15;;;2.60;;
72559;SDS011;62987;52.382;9.752;2022-11-15T09:11:38;6.63;;;2.70;;
72559;SDS011;62987;52.382;9.752;2022-11-15T09:14:25;4.82;;;2.10;;
72559;SDS011;62987;52.382;9.752;2022-11-15T09:17:13;5.90;;;2.30;;
72559;SDS011;62987;52.382;9.752;2022-11-15T09:20:08;5.63;;;2.35;;
72559;SDS011;62987;52.382;9.752;2022-11-15T09:22:58;4.97;;;1.92;;
72559;SDS011;62987;52.382;9.752;2022-11-15T09:25:45;5.18;;;2.40;;
72559;SDS011;62987;52.382;9.752;2022-11-15T09:28:32;5.07;;;2.35;;
72559;SDS011;62987;52.382;9.752;2022-11-15T09:31:20;6.03;;;2.88;;
72559;SDS011;62987;52.382;9.752;2022-11-15T09:34:08;4.80;;;2.03;;
72559;SDS011;62987;52.382;9.752;2022-11-15T09:36:55;4.53;;;2.05;;
72559;SDS011;62987;52.382;9.752;2022-11-15T09:39:41;5.20;;;2.05;;
72559;SDS011;62987;52.382;9.752;2022-11-15T09:42:32;4.82;;;2.00;;
72559;SDS011;62987;52.382;9.752;2022-11-15T09:45:31;4.10;;;1.75;;
72559;SDS011;62987;52.382;9.752;2022-11-15T09:48:27;5.13;;;1.95;;
72559;SDS011;62987;52.382;9.752;2022-11-15T09:51:26;5.63;;;2.22;;
72559;SDS011;62987;52.382;9.752;2022-11-15T09:53:58;4.40;;;2.10;;
72559;SDS011;62987;52.382;9.752;2022-11-15T09:56:52;4.65;;;1.85;;
72559;SDS011;62987;52.382;9.752;2022-11-15T09:59:23;4.65;;;2.42;;
72559;SDS011;62987;52.382;9.752;2022-11-15T10:02:08;5.65;;;2.33;;
72559;SDS011;62987;52.382;9.752;2022-11-15T10:04:48;5.15;;;2.67;;
72559;SDS011;62987;52.382;9.752;2022-11-15T10:07:18;6.20;;;2.38;;
72559;SDS011;62987;52.382;9.752;2022-11-15T10:09:54;5.18;;;2.45;;
72559;SDS011;62987;52.382;9.752;2022-11-15T10:12:28;5.72;;;2.55;;
72559;SDS011;62987;52.382;9.752;2022-11-15T10:14:58;5.68;;;2.17;;
72559;SDS011;62987;52.382;9.752;2022-11-15T10:20:13;4.80;;;2.00;;
72559;SDS011;62987;52.382;9.752;2022-11-15T10:22:47;5.22;;;1.88;;
72559;SDS011;62987;52.382;9.752;2022-11-15T10:25:19;5.70;;;2.55;;
72559;SDS011;62987;52.382;9.752;2022-11-15T10:27:55;4.97;;;2.30;;
72559;SDS011;62987;52.382;9.752;2022-11-15T10:30:30;4.05;;;2.10;;
72559;SDS011;62987;52.382;9.752;2022-11-15T10:33:08;7.03;;;2.38;;
72559;SDS011;62987;52.382;9.752;2022-11-15T10:35:41;5.32;;;2.47;;
72559;SDS011;62987;52.382;9.752;2022-11-15T10:38:11;4.57;;;2.03;;
72559;SDS011;62987;52.382;9.752;2022-11-15T10:40:40;4.57;;;2.30;;
72559;SDS011;62987;52.382;9.752;2022-11-15T10:43:14;4.78;;;2.22;;
72559;SDS011;62987;52.382;9.752;2022-11-15T10:45:44;6.07;;;2.47;;
72559;SDS011;62987;52.382;9.752;2022-11-15T10:48:23;3.60;;;1.80;;
72559;SDS011;62987;52.382;9.752;2022-11-15T10:53:27;4.13;;;1.92;;
72559;SDS011;62987;52.382;9.752;2022-11-15T10:56:00;5.80;;;2.05;;
72559;SDS011;62987;52.382;9.752;2022-11-15T10:58:32;4.45;;;1.85;;
72559;SDS011;62987;52.382;9.752;2022-11-15T11:01:14;4.47;;;2.03;;
72559;SDS011;62987;52.382;9.752;2022-11-15T11:03:44;3.97;;;1.83;;
72559;SDS011;62987;52.382;9.752;2022-11-15T11:06:14;4.20;;;2.15;;
72559;SDS011;62987;52.382;9.752;2022-11-15T11:08:55;4.38;;;2.00;;
72559;SDS011;62987;52.382;9.752;2022-11-15T11:11:25;4.65;;;2.00;;
72559;SDS011;62987;52.382;9.752;2022-11-15T11:14:17;4.45;;;1.77;;
72559;SDS011;62987;52.382;9.752;2022-11-15T11:16:50;7.07;;;2.83;;
72559;SDS011;62987;52.382;9.752;2022-11-15T11:19:38;5.35;;;1.83;;
72559;SDS011;62987;52.382;9.752;2022-11-15T11:22:17;6.55;;;2.63;;
72559;SDS011;62987;52.382;9.752;2022-11-15T11:24:55;6.13;;;2.42;;
72559;SDS011;62987;52.382;9.752;2022-11-15T11:27:35;6.65;;;2.05;;
72559;SDS011;62987;52.382;9.752;2022-11-15T11:30:12;5.15;;;1.85;;
72559;SDS011;62987;52.382;9.752;2022-11-15T11:32:56;5.10;;;1.92;;
72559;SDS011;62987;52.382;9.752;2022-11-15T11:35:34;6.85;;;2.85;;
72559;SDS011;62987;52.382;9.752;2022-11-15T11:38:16;5.18;;;2.20;;
72559;SDS011;62987;52.382;9.752;2022-11-15T11:40:57;5.68;;;1.80;;
72559;SDS011;62987;52.382;9.752;2022-11-15T11:43:34;3.58;;;1.67;;
72559;SDS011;62987;52.382;9.752;2022-11-15T11:46:13;4.18;;;1.60;;
72559;SDS011;62987;52.382;9.752;2022-11-15T11:48:52;4.32;;;1.52;;
72559;SDS011;62987;52.382;9.752;2022-11-15T11:51:27;5.13;;;1.98;;
72559;SDS011;62987;52.382;9.752;2022-11-15T11:54:00;3.85;;;1.55;;
72559;SDS011;62987;52.382;9.752;2022-11-15T11:56:35;3.47;;;1.50;;
72559;SDS011;62987;52.382;9.752;2022-11-15T11:59:05;3.30;;;1.75;;
72559;SDS011;62987;52.382;9.752;2022-11-15T12:01:42;3.92;;;1.80;;
72559;SDS011;62987;52.382;9.752;2022-11-15T12:04:13;4.22;;;1.75;;
72559;SDS011;62987;52.382;9.752;2022-11-15T12:06:46;5.20;;;2.35;;
72559;SDS011;62987;52.382;9.752;2022-11-15T12:11:51;4.30;;;2.00;;
72559;SDS011;62987;52.382;9.752;2022-11-15T12:14:25;6.00;;;1.90;;
72559;SDS011;62987;52.382;9.752;2022-11-15T12:16:58;4.25;;;2.15;;
72559;SDS011;62987;52.382;9.752;2022-11-15T12:19:28;3.70;;;1.75;;
72559;SDS011;62987;52.382;9.752;2022-11-15T12:22:00;4.65;;;1.80;;
72559;SDS011;62987;52.382;9.752;2022-11-15T12:24:34;6.63;;;1.75;;
72559;SDS011;62987;52.382;9.752;2022-11-15T12:27:11;4.38;;;1.88;;
72559;SDS011;62987;52.382;9.752;2022-11-15T12:29:52;7.05;;;1.70;;
72559;SDS011;62987;52.382;9.752;2022-11-15T12:32:25;7.03;;;2.17;;
72559;SDS011;62987;52.382;9.752;2022-11-15T12:34:55;6.15;;;2.35;;
72559;SDS011;62987;52.382;9.752;2022-11-15T12:40:29;7.20;;;1.98;;
72559;SDS011;62987;52.382;9.752;2022-11-15T12:43:37;5.93;;;1.63;;
72559;SDS011;62987;52.382;9.752;2022-11-15T12:46:11;3.92;;;1.98;;
72559;SDS011;62987;52.382;9.752;2022-11-15T12:48:47;4.32;;;2.05;;
72559;SDS011;62987;52.382;9.752;2022-11-15T12:51:19;3.47;;;1.65;;
72559;SDS011;62987;52.382;9.752;2022-11-15T12:53:48;4.43;;;2.00;;
72559;SDS011;62987;52.382;9.752;2022-11-15T12:56:18;5.57;;;2.10;;
72559;SDS011;62987;52.382;9.752;2022-11-15T12:58:51;9.55;;;2.60;;
72559;SDS011;62987;52.382;9.752;2022-11-15T13:04:27;4.45;;;1.88;;
72559;SDS011;62987;52.382;9.752;2022-11-15T13:06:57;5.07;;;2.20;;
72559;SDS011;62987;52.382;9.752;2022-11-15T13:18:34;4.45;;;2.20;;
72559;SDS011;62987;52.382;9.752;2022-11-15T13:21:16;3.92;;;1.90;;
72559;SDS011;62987;52.382;9.752;2022-11-15T13:24:04;6.80;;;2.00;;
72559;SDS011;62987;52.382;9.752;2022-11-15T13:26:39;7.57;;;2.35;;
72559;SDS011;62987;52.382;9.752;2022-11-15T13:29:14;7.10;;;1.50;;
72559;SDS011;62987;52.382;9.752;2022-11-15T13:31:46;5.85;;;2.00;;
72559;SDS011;62987;52.382;9.752;2022-11-15T13:34:16;6.60;;;2.10;;
72559;SDS011;62987;52.382;9.752;2022-11-15T13:39:55;3.92;;;2.03;;
72559;SDS011;62987;52.382;9.752;2022-11-15T13:42:45;4.43;;;1.77;;
72559;SDS011;62987;52.382;9.752;2022-11-15T13:45:13;5.82;;;1.83;;
72559;SDS011;62987;52.382;9.752;2022-11-15T13:47:47;5.35;;;1.70;;
72559;SDS011;62987;52.382;9.752;2022-11-15T13:50:19;4.53;;;1.77;;
72559;SDS011;62987;52.382;9.752;2022-11-15T13:52:50;4.22;;;1.88;;
72559;SDS011;62987;52.382;9.752;2022-11-15T13:55:20;4.50;;;2.25;;
72559;SDS011;62987;52.382;9.752;2022-11-15T13:57:50;4.78;;;1.90;;
72559;SDS011;62987;52.382;9.752;2022-11-15T14:00:29;4.18;;;1.95;;
72559;SDS011;62987;52.382;9.752;2022-11-15T14:03:06;5.70;;;2.10;;
72559;SDS011;62987;52.382;9.752;2022-11-15T14:05:41;4.35;;;1.88;;
72559;SDS011;62987;52.382;9.752;2022-11-15T14:08:21;4.78;;;2.00;;
72559;SDS011;62987;52.382;9.752;2022-11-15T14:11:05;4.88;;;1.95;;
72559;SDS011;62987;52.382;9.752;2022-11-15T14:13:34;4.45;;;2.30;;
72559;SDS011;62987;52.382;9.752;2022-11-15T14:16:13;5.65;;;1.80;;
72559;SDS011;62987;52.382;9.752;2022-11-15T14:18:44;4.88;;;2.03;;
72559;SDS011;62987;52.382;9.752;2022-11-15T14:21:14;5.97;;;2.10;;
72559;SDS011;62987;52.382;9.752;2022-11-15T14:23:43;25.33;;;4.85;;
72559;SDS011;62987;52.382;9.752;2022-11-15T14:26:25;5.40;;;1.98;;
72559;SDS011;62987;52.382;9.752;2022-11-15T14:29:00;8.32;;;2.30;;
72559;SDS011;62987;52.382;9.752;2022-11-15T14:31:52;4.15;;;1.70;;
72559;SDS011;62987;52.382;9.752;2022-11-15T14:34:22;4.40;;;1.90;;
72559;SDS011;62987;52.382;9.752;2022-11-15T14:36:50;11.75;;;2.88;;
72559;SDS011;62987;52.382;9.752;2022-11-15T14:39:18;4.93;;;1.90;;
72559;SDS011;62987;52.382;9.752;2022-11-15T14:41:46;4.70;;;1.88;;
72559;SDS011;62987;52.382;9.752;2022-11-15T14:44:14;3.88;;;1.65;;
72559;SDS011;62987;52.382;9.752;2022-11-15T14:46:44;4.88;;;2.17;;
72559;SDS011;62987;52.382;9.752;2022-11-15T14:49:14;5.65;;;2.03;;
72559;SDS011;62987;52.382;9.752;2022-11-15T14:51:44;5.07;;;2.28;;
72559;SDS011;62987;52.382;9.752;2022-11-15T14:54:12;5.65;;;1.50;;
72559;SDS011;62987;52.382;9.752;2022-11-15T14:56:40;5.30;;;1.75;;
72559;SDS011;62987;52.382;9.752;2022-11-15T14:59:09;6.97;;;2.33;;
72559;SDS011;62987;52.382;9.752;2022-11-15T15:01:37;4.85;;;2.13;;
72559;SDS011;62987;52.382;9.752;2022-11-15T15:04:05;5.25;;;1.92;;
72559;SDS011;62987;52.382;9.752;2022-11-15T15:06:33;4.75;;;1.80;;
72559;SDS011;62987;52.382;9.752;2022-11-15T15:09:02;5.10;;;2.13;;
72559;SDS011;62987;52.382;9.752;2022-11-15T15:11:31;5.75;;;2.10;;
72559;SDS011;62987;52.382;9.752;2022-11-15T15:13:59;6.10;;;2.38;;
72559;SDS011;62987;52.382;9.752;2022-11-15T15:16:27;6.05;;;1.75;;
72559;SDS011;62987;52.382;9.752;2022-11-15T15:18:55;4.50;;;2.20;;
72559;SDS011;62987;52.382;9.752;2022-11-15T15:21:24;4.78;;;2.28;;
72559;SDS011;62987;52.382;9.752;2022-11-15T15:24:03;4.93;;;1.90;;
72559;SDS011;62987;52.382;9.752;2022-11-15T15:26:31;4.97;;;1.85;;
72559;SDS011;62987;52.382;9.752;2022-11-15T15:29:02;6.05;;;2.08;;
72559;SDS011;62987;52.382;9.752;2022-11-15T15:31:30;5.05;;;2.38;;
72559;SDS011;62987;52.382;9.752;2022-11-15T15:33:59;5.93;;;1.90;;
72559;SDS011;62987;52.382;9.752;2022-11-15T15:36:27;6.90;;;2.13;;
72559;SDS011;62987;52.382;9.752;2022-11-15T15:38:55;4.38;;;1.90;;
72559;SDS011;62987;52.382;9.752;2022-11-15T15:41:24;6.05;;;2.17;;
72559;SDS011;62987;52.382;9.752;2022-11-15T15:43:53;4.82;;;1.80;;
72559;SDS011;62987;52.382;9.752;2022-11-15T15:46:21;4.45;;;1.73;;
72559;SDS011;62987;52.382;9.752;2022-11-15T15:48:49;4.75;;;1.55;;
72559;SDS011;62987;52.382;9.752;2022-11-15T15:51:17;4.47;;;1.83;;
72559;SDS011;62987;52.382;9.752;2022-11-15T15:53:46;6.60;;;2.65;;
72559;SDS011;62987;52.382;9.752;2022-11-15T15:56:14;5.47;;;2.00;;
72559;SDS011;62987;52.382;9.752;2022-11-15T15:58:44;4.47;;;2.15;;
72559;SDS011;62987;52.382;9.752;2022-11-15T16:01:12;5.05;;;1.75;;
72559;SDS011;62987;52.382;9.752;2022-11-15T16:03:40;4.93;;;1.92;;
72559;SDS011;62987;52.382;9.752;2022-11-15T16:08:59;6.63;;;2.50;;
72559;SDS011;62987;52.382;9.752;2022-11-15T16:11:41;3.40;;;1.85;;
72559;SDS011;62987;52.382;9.752;2022-11-15T16:14:11;4.20;;;1.90;;
72559;SDS011;62987;52.382;9.752;2022-11-15T16:16:39;6.40;;;2.58;;
72559;SDS011;62987;52.382;9.752;2022-11-15T16:19:07;4.45;;;1.80;;
72559;SDS011;62987;52.382;9.752;2022-11-15T16:21:37;5.72;;;2.20;;
72559;SDS011;62987;52.382;9.752;2022-11-15T16:24:05;13.20;;;2.92;;
72559;SDS011;62987;52.382;9.752;2022-11-15T16:26:34;5.22;;;2.45;;
72559;SDS011;62987;52.382;9.752;2022-11-15T16:29:03;7.65;;;2.42;;
72559;SDS011;62987;52.382;9.752;2022-11-15T16:31:34;5.85;;;2.45;;
72559;SDS011;62987;52.382;9.752;2022-11-15T16:34:02;6.45;;;2.65;;
72559;SDS011;62987;52.382;9.752;2022-11-15T16:36:31;7.28;;;3.00;;
72559;SDS011;62987;52.382;9.752;2022-11-15T16:39:01;6.13;;;2.70;;
72559;SDS011;62987;52.382;9.752;2022-11-15T16:41:30;6.90;;;3.88;;
72559;SDS011;62987;52.382;9.752;2022-11-15T16:43:58;8.43;;;3.40;;
72559;SDS011;62987;52.382;9.752;2022-11-15T16:46:27;8.98;;;3.15;;
72559;SDS011;62987;52.382;9.752;2022-11-15T16:48:56;6.45;;;2.95;;